Time;durP1;ratioP1;P1;durP2;ratioP2;P2;SDS_P1;SDS_P2;PMS_P1;PMS_P2;Temp;Humidity;BMP_temperature;BMP_pressure;BME280_temperature;BME280_humidity;BME280_pressure;Samples;Min_cycle;Max_cycle;Signal;HPM_P1;HPM_P2
2023/12/27 00:01:38;;;;;;;7.57;3.97;;;7.50;99.90;;;;;;5068786;28;20435;-85
2023/12/27 00:04:24;;;;;;;8.23;5.83;;;7.40;99.90;;;;;;5066072;28;20447;-85
2023/12/27 00:07:09;;;;;;;9.27;7.20;;;7.40;99.90;;;;;;5058792;28;20956;-85
2023/12/27 00:09:55;;;;;;;12.43;5.97;;;7.40;99.90;;;;;;5075047;28;21021;-86
2023/12/27 00:12:41;;;;;;;7.60;6.10;;;7.50;99.90;;;;;;5076259;28;20428;-85
2023/12/27 00:15:26;;;;;;;8.53;5.90;;;7.60;99.90;;;;;;5076531;28;20433;-84
2023/12/27 00:18:16;;;;;;;7.30;6.17;;;7.60;99.90;;;;;;5077882;28;20433;-85
2023/12/27 00:21:02;;;;;;;11.00;5.97;;;7.50;99.90;;;;;;5062563;28;20481;-85
2023/12/27 00:23:47;;;;;;;14.13;5.30;;;7.60;99.90;;;;;;5062180;28;20827;-85
2023/12/27 00:26:33;;;;;;;8.03;6.63;;;7.60;99.90;;;;;;5064598;28;20531;-86
2023/12/27 00:29:19;;;;;;;10.30;7.43;;;7.60;99.90;;;;;;5062112;28;21444;-85
2023/12/27 00:32:08;;;;;;;9.87;7.80;;;7.60;99.90;;;;;;5066393;28;20471;-85
2023/12/27 00:34:55;;;;;;;10.97;7.77;;;7.60;99.90;;;;;;5067269;28;20503;-86
2023/12/27 00:37:40;;;;;;;10.90;8.13;;;7.60;99.90;;;;;;5062894;28;20935;-85
2023/12/27 00:40:26;;;;;;;10.07;7.13;;;7.60;99.90;;;;;;5069989;28;20548;-85
2023/12/27 00:43:12;;;;;;;10.30;7.37;;;7.70;99.90;;;;;;5068320;28;20454;-86
2023/12/27 00:45:57;;;;;;;9.63;6.93;;;7.70;99.90;;;;;;5066456;28;20476;-85
2023/12/27 00:48:43;;;;;;;10.90;7.33;;;7.70;99.90;;;;;;5071194;28;20441;-85
2023/12/27 00:51:30;;;;;;;10.43;7.00;;;7.80;99.90;;;;;;5070185;28;20483;-85
2023/12/27 00:54:15;;;;;;;9.00;6.70;;;7.80;99.90;;;;;;5065890;28;20560;-85
2023/12/27 00:57:01;;;;;;;7.50;6.27;;;7.90;99.90;;;;;;5068459;28;20495;-85
2023/12/27 00:59:47;;;;;;;10.80;7.57;;;7.90;99.90;;;;;;5070281;28;20567;-85
2023/12/27 01:02:34;;;;;;;10.50;7.07;;;7.90;99.90;;;;;;5075501;28;20446;-86
2023/12/27 01:05:20;;;;;;;9.20;7.33;;;7.90;99.90;;;;;;5072058;28;20990;-84
2023/12/27 01:08:07;;;;;;;9.80;7.50;;;7.90;99.90;;;;;;5069746;28;20880;-85
2023/12/27 01:10:53;;;;;;;11.10;7.20;;;7.90;99.90;;;;;;5069753;28;20444;-85
2023/12/27 01:13:38;;;;;;;10.27;6.97;;;7.90;99.90;;;;;;5070306;28;20460;-86
2023/12/27 01:16:24;;;;;;;8.13;6.53;;;7.90;99.90;;;;;;5071561;28;20506;-85
2023/12/27 01:19:11;;;;;;;11.13;8.20;;;7.90;99.90;;;;;;5065705;28;20476;-85
2023/12/27 01:21:57;;;;;;;9.30;7.30;;;7.90;99.90;;;;;;5067319;28;20472;-85
2023/12/27 01:24:44;;;;;;;15.07;6.93;;;7.90;99.90;;;;;;5068884;28;20975;-85
2023/12/27 01:27:29;;;;;;;10.43;7.20;;;8.00;99.90;;;;;;5071192;28;20559;-85
2023/12/27 01:30:15;;;;;;;16.87;7.47;;;8.10;99.90;;;;;;5063782;28;20492;-87
2023/12/27 01:33:01;;;;;;;8.97;7.07;;;8.10;99.90;;;;;;5072028;28;20443;-85
2023/12/27 01:35:54;;;;;;;10.67;6.80;;;8.10;99.90;;;;;;5062739;28;20438;-86
2023/12/27 01:38:40;;;;;;;9.23;6.50;;;8.10;99.90;;;;;;5069664;28;20920;-85
2023/12/27 01:41:27;;;;;;;9.87;6.00;;;8.20;99.90;;;;;;5070550;28;21484;-85
2023/12/27 01:44:12;;;;;;;9.50;6.23;;;8.20;99.90;;;;;;5070616;28;21038;-85
2023/12/27 01:46:58;;;;;;;12.20;6.20;;;8.20;99.90;;;;;;5060005;28;20469;-85
2023/12/27 01:49:44;;;;;;;8.20;5.47;;;8.20;99.90;;;;;;5070990;28;20464;-85
2023/12/27 01:52:31;;;;;;;8.27;5.70;;;8.20;99.90;;;;;;5061386;28;20449;-86
2023/12/27 01:55:17;;;;;;;15.00;6.53;;;8.20;99.90;;;;;;5064588;28;20469;-85
2023/12/27 01:58:08;;;;;;;9.37;6.33;;;8.20;99.90;;;;;;5063668;28;20981;-85
2023/12/27 02:00:56;;;;;;;8.90;6.17;;;8.20;99.90;;;;;;5067034;28;20469;-85
2023/12/27 02:03:42;;;;;;;9.13;6.47;;;8.10;99.90;;;;;;5067715;28;20453;-85
2023/12/27 02:06:27;;;;;;;8.40;6.17;;;8.20;99.90;;;;;;5067446;28;21008;-85
2023/12/27 02:09:13;;;;;;;6.63;5.00;;;8.20;99.90;;;;;;5065323;28;20479;-85
2023/12/27 02:11:59;;;;;;;9.80;5.40;;;8.30;99.90;;;;;;5061965;28;20590;-85
2023/12/27 02:14:46;;;;;;;12.10;6.23;;;8.20;99.90;;;;;;5066185;28;20457;-85
2023/12/27 02:17:33;;;;;;;7.03;5.77;;;8.30;99.90;;;;;;5065942;28;20450;-86
2023/12/27 02:20:19;;;;;;;9.10;5.30;;;8.30;99.90;;;;;;5061770;28;20549;-86
2023/12/27 02:23:08;;;;;;;8.23;5.40;;;8.30;99.90;;;;;;5065648;28;20423;-85
2023/12/27 02:25:56;;;;;;;6.30;4.37;;;8.30;99.90;;;;;;5058595;28;20498;-86
2023/12/27 02:28:43;;;;;;;7.87;4.20;;;8.30;99.90;;;;;;5066054;28;20458;-85
2023/12/27 02:31:28;;;;;;;6.07;4.60;;;8.30;99.90;;;;;;5064073;28;20518;-85
2023/12/27 02:34:14;;;;;;;8.90;5.60;;;8.30;99.90;;;;;;5068064;28;20430;-86
2023/12/27 02:37:00;;;;;;;5.43;4.23;;;8.30;99.90;;;;;;5069765;28;20535;-85
2023/12/27 02:39:45;;;;;;;7.73;5.80;;;8.30;99.90;;;;;;5072054;28;20528;-84
2023/12/27 02:42:33;;;;;;;8.70;4.53;;;8.30;99.90;;;;;;5069850;28;20464;-85
2023/12/27 02:45:19;;;;;;;5.47;4.37;;;8.30;99.90;;;;;;5063503;28;20521;-86
2023/12/27 02:48:04;;;;;;;9.13;4.47;;;8.30;99.90;;;;;;5059784;28;20477;-86
2023/12/27 02:50:50;;;;;;;6.97;4.80;;;8.30;99.90;;;;;;5060001;28;20535;-85
2023/12/27 02:53:35;;;;;;;15.30;4.70;;;8.40;99.90;;;;;;5061793;28;20592;-86
2023/12/27 02:56:22;;;;;;;6.63;3.83;;;8.30;99.90;;;;;;5061831;28;20589;-85
2023/12/27 02:59:09;;;;;;;7.07;4.30;;;8.40;99.90;;;;;;5063300;28;20427;-85
2023/12/27 03:01:54;;;;;;;4.83;3.57;;;8.50;99.90;;;;;;5061092;28;20594;-84
2023/12/27 03:04:40;;;;;;;6.63;4.07;;;8.40;99.90;;;;;;5062288;28;20419;-85
2023/12/27 03:07:26;;;;;;;13.53;5.37;;;8.50;99.90;;;;;;5059796;28;20626;-85
2023/12/27 03:10:12;;;;;;;6.60;4.90;;;8.50;99.90;;;;;;5065999;28;20446;-85
2023/12/27 03:12:58;;;;;;;22.33;9.47;;;8.50;99.90;;;;;;5066836;28;20964;-85
2023/12/27 03:15:45;;;;;;;28.37;9.87;;;8.40;99.90;;;;;;5067164;28;20452;-86
2023/12/27 03:18:31;;;;;;;33.17;10.63;;;8.30;99.90;;;;;;5068925;28;20468;-85
2023/12/27 03:21:16;;;;;;;24.80;10.17;;;8.30;99.90;;;;;;5065896;28;20719;-84
2023/12/27 03:24:02;;;;;;;27.77;10.37;;;8.20;99.90;;;;;;5061217;28;20497;-85
2023/12/27 03:26:48;;;;;;;23.70;8.93;;;8.20;99.90;;;;;;5062073;28;20849;-85
2023/12/27 03:29:33;;;;;;;13.40;7.10;;;8.30;99.90;;;;;;5062715;28;20576;-85
2023/12/27 03:32:20;;;;;;;19.43;8.27;;;8.40;99.90;;;;;;5064042;28;20501;-85
2023/12/27 03:35:07;;;;;;;19.63;8.37;;;8.30;99.90;;;;;;5067426;28;20981;-86
2023/12/27 03:37:52;;;;;;;16.00;7.70;;;8.30;99.90;;;;;;5066370;28;20424;-85
2023/12/27 03:40:38;;;;;;;15.57;7.80;;;8.30;99.90;;;;;;5062838;28;20531;-84
2023/12/27 03:43:24;;;;;;;14.47;7.90;;;8.30;99.90;;;;;;5055976;28;20826;-85
2023/12/27 03:46:11;;;;;;;17.17;8.93;;;8.40;99.90;;;;;;5065998;28;20575;-84
2023/12/27 03:48:58;;;;;;;18.40;8.03;;;8.30;99.90;;;;;;5068430;28;20457;-85
2023/12/27 03:51:43;;;;;;;15.20;7.87;;;8.30;99.90;;;;;;5067564;28;20445;-85
2023/12/27 03:54:29;;;;;;;17.60;8.30;;;8.20;99.90;;;;;;5064103;28;20413;-86
2023/12/27 03:57:15;;;;;;;15.63;8.73;;;8.30;99.90;;;;;;5066318;28;20555;-86
2023/12/27 04:00:00;;;;;;;22.27;7.80;;;8.20;99.90;;;;;;5065798;28;20980;-85
2023/12/27 04:02:46;;;;;;;14.57;7.37;;;8.20;99.90;;;;;;5068216;28;20441;-85
2023/12/27 04:05:34;;;;;;;23.70;8.00;;;8.20;99.90;;;;;;5070797;28;20534;-86
2023/12/27 04:08:19;;;;;;;14.83;6.80;;;8.20;99.90;;;;;;5062580;28;20473;-85
2023/12/27 04:11:05;;;;;;;10.83;6.90;;;8.20;99.90;;;;;;5065733;28;20470;-85
2023/12/27 04:13:51;;;;;;;14.43;7.00;;;8.30;99.90;;;;;;5068553;28;20578;-86
2023/12/27 04:16:37;;;;;;;12.10;6.80;;;8.30;99.90;;;;;;5064244;28;20496;-84
2023/12/27 04:19:23;;;;;;;8.40;5.60;;;8.30;99.90;;;;;;5064838;28;20499;-85
2023/12/27 04:22:10;;;;;;;7.50;5.53;;;8.30;99.90;;;;;;5063138;28;20468;-84
2023/12/27 04:24:55;;;;;;;6.80;4.60;;;8.30;99.90;;;;;;5074519;28;20462;-86
2023/12/27 04:27:41;;;;;;;6.10;4.10;;;8.30;99.90;;;;;;5074206;28;20511;-86
2023/12/27 04:30:26;;;;;;;8.63;5.70;;;8.40;99.90;;;;;;5075269;28;20489;-85
2023/12/27 04:33:12;;;;;;;13.03;5.07;;;8.40;99.90;;;;;;5071661;28;20483;-85
2023/12/27 04:35:58;;;;;;;12.77;4.43;;;8.40;99.90;;;;;;5070388;28;20453;-86
2023/12/27 04:38:45;;;;;;;5.63;4.47;;;8.40;99.90;;;;;;5071764;28;20426;-85
2023/12/27 04:41:30;;;;;;;7.53;4.30;;;8.40;99.90;;;;;;5075236;28;20452;-85
2023/12/27 04:44:16;;;;;;;6.50;4.80;;;8.50;99.90;;;;;;5074789;28;20426;-86
2023/12/27 04:47:02;;;;;;;11.63;5.33;;;8.50;99.90;;;;;;5073531;28;20471;-84
2023/12/27 04:49:48;;;;;;;11.03;4.70;;;8.50;99.90;;;;;;5072468;28;20471;-85
2023/12/27 04:52:33;;;;;;;7.13;4.20;;;8.50;99.90;;;;;;5074564;28;20434;-85
2023/12/27 04:55:21;;;;;;;10.40;3.93;;;8.50;99.90;;;;;;5070745;28;20424;-84
2023/12/27 04:58:06;;;;;;;7.77;3.53;;;8.60;99.90;;;;;;5077416;28;20436;-86
2023/12/27 05:00:52;;;;;;;5.33;3.90;;;8.70;99.90;;;;;;5078111;28;20495;-85
2023/12/27 05:03:38;;;;;;;6.83;3.87;;;8.70;99.90;;;;;;5074689;28;20425;-86
2023/12/27 05:06:23;;;;;;;7.40;4.67;;;8.80;99.90;;;;;;5072932;28;20433;-85
2023/12/27 05:09:09;;;;;;;5.13;4.20;;;8.80;99.90;;;;;;5061742;28;20512;-85
2023/12/27 05:11:56;;;;;;;7.70;4.03;;;8.70;99.90;;;;;;5072632;28;20553;-86
2023/12/27 05:14:42;;;;;;;6.50;3.97;;;8.70;99.90;;;;;;5075913;28;20428;-85
2023/12/27 05:17:28;;;;;;;6.77;4.00;;;8.70;99.90;;;;;;5075439;28;20429;-85
2023/12/27 05:20:14;;;;;;;9.10;4.03;;;8.80;99.90;;;;;;5078125;28;20449;-85
2023/12/27 05:23:00;;;;;;;7.23;4.47;;;8.80;99.90;;;;;;5073125;28;20416;-85
2023/12/27 05:25:46;;;;;;;4.20;3.30;;;8.80;99.90;;;;;;5074906;28;20496;-86
2023/12/27 05:28:33;;;;;;;15.70;3.63;;;8.80;99.90;;;;;;5076355;28;20456;-85
2023/12/27 05:31:19;;;;;;;6.40;3.80;;;8.90;99.90;;;;;;5079628;28;20488;-85
2023/12/27 05:34:05;;;;;;;9.00;3.97;;;8.90;99.90;;;;;;5071052;28;20829;-85
2023/12/27 05:36:50;;;;;;;5.13;3.77;;;8.90;99.90;;;;;;5061875;28;20524;-85
2023/12/27 05:39:36;;;;;;;7.47;4.00;;;8.90;99.90;;;;;;5068409;28;20412;-85
2023/12/27 05:42:22;;;;;;;8.80;4.17;;;8.80;99.90;;;;;;5065294;28;20484;-85
2023/12/27 05:45:10;;;;;;;7.83;3.80;;;8.80;99.90;;;;;;5061480;28;20450;-84
2023/12/27 05:47:56;;;;;;;11.40;4.20;;;8.80;99.90;;;;;;5058203;28;20583;-85
2023/12/27 05:50:41;;;;;;;8.33;3.77;;;8.80;99.90;;;;;;5062010;28;21077;-85
2023/12/27 05:53:28;;;;;;;6.40;3.77;;;8.80;99.90;;;;;;5063424;28;20561;-85
2023/12/27 05:56:14;;;;;;;11.20;4.30;;;8.80;99.90;;;;;;5065167;28;20829;-85
2023/12/27 05:58:59;;;;;;;5.30;3.60;;;8.80;99.90;;;;;;5061377;28;20441;-86
2023/12/27 06:01:52;;;;;;;5.63;3.60;;;8.90;99.90;;;;;;5061616;28;20469;-85
2023/12/27 06:04:38;;;;;;;10.00;3.57;;;8.80;99.90;;;;;;5063332;28;20428;-86
2023/12/27 06:07:24;;;;;;;4.43;3.43;;;8.80;99.90;;;;;;5059628;28;20595;-85
2023/12/27 06:10:10;;;;;;;6.50;2.90;;;8.90;99.90;;;;;;5060214;28;20453;-84
2023/12/27 06:12:55;;;;;;;10.93;3.30;;;8.80;99.90;;;;;;5061146;28;20443;-85
2023/12/27 06:15:41;;;;;;;4.40;3.67;;;8.80;99.90;;;;;;5069523;28;20433;-85
2023/12/27 06:18:28;;;;;;;7.43;3.60;;;8.80;99.90;;;;;;5055365;28;20559;-86
2023/12/27 06:21:14;;;;;;;7.07;3.63;;;8.90;99.90;;;;;;5060231;28;20595;-86
2023/12/27 06:24:00;;;;;;;15.73;2.90;;;8.90;99.90;;;;;;5057940;28;20452;-86
2023/12/27 06:26:46;;;;;;;6.70;3.10;;;8.80;99.90;;;;;;5067883;28;20414;-85
2023/12/27 06:29:31;;;;;;;4.57;3.00;;;8.80;99.90;;;;;;5067390;28;21037;-85
2023/12/27 06:32:17;;;;;;;14.17;2.10;;;8.80;99.90;;;;;;5064191;28;20686;-84
2023/12/27 06:35:05;;;;;;;6.23;2.97;;;8.80;99.90;;;;;;5059823;28;20433;-86
2023/12/27 06:37:50;;;;;;;4.77;2.53;;;8.90;99.90;;;;;;5064911;28;20436;-86
2023/12/27 06:40:36;;;;;;;5.77;2.40;;;8.90;99.90;;;;;;5061693;28;20772;-86
2023/12/27 06:43:22;;;;;;;8.30;3.00;;;8.90;99.90;;;;;;5063650;28;20416;-85
2023/12/27 06:46:08;;;;;;;9.07;3.10;;;8.90;99.90;;;;;;5059751;28;20452;-86
2023/12/27 06:48:53;;;;;;;9.83;3.13;;;8.90;99.90;;;;;;5068331;28;21093;-85
2023/12/27 06:51:41;;;;;;;4.83;2.83;;;8.90;99.90;;;;;;5064666;28;20538;-86
2023/12/27 06:54:26;;;;;;;5.00;2.33;;;8.90;99.90;;;;;;5056553;28;20455;-84
2023/12/27 06:57:12;;;;;;;8.30;2.60;;;8.80;99.90;;;;;;5070105;28;20484;-85
2023/12/27 06:59:58;;;;;;;10.07;2.97;;;8.80;99.90;;;;;;5060316;28;20562;-85
2023/12/27 07:02:43;;;;;;;6.93;2.70;;;8.90;99.90;;;;;;5063613;28;20498;-86
2023/12/27 07:05:29;;;;;;;3.07;2.57;;;8.90;99.90;;;;;;5059735;28;20959;-85
2023/12/27 07:08:16;;;;;;;10.90;3.90;;;8.90;99.90;;;;;;5059633;28;20447;-85
2023/12/27 07:11:02;;;;;;;7.87;7.17;;;8.80;99.90;;;;;;5063423;28;20499;-85
2023/12/27 07:13:48;;;;;;;4.60;3.10;;;8.80;99.90;;;;;;5063804;28;20438;-85
2023/12/27 07:16:34;;;;;;;9.47;3.10;;;8.80;99.90;;;;;;5061427;28;20533;-86
2023/12/27 07:19:19;;;;;;;3.77;2.13;;;8.80;99.90;;;;;;5064629;28;20453;-85
2023/12/27 07:22:05;;;;;;;6.20;2.43;;;8.80;99.90;;;;;;5064443;28;20457;-84
2023/12/27 07:24:52;;;;;;;5.43;2.10;;;8.80;99.90;;;;;;5067656;28;20418;-85
2023/12/27 07:27:38;;;;;;;4.80;2.80;;;8.80;99.90;;;;;;5070639;28;20462;-85
2023/12/27 07:30:24;;;;;;;6.70;2.93;;;8.80;99.90;;;;;;5065801;28;20466;-86
2023/12/27 07:33:09;;;;;;;5.10;2.73;;;8.80;99.90;;;;;;5064118;28;20442;-85
2023/12/27 07:35:55;;;;;;;7.50;3.20;;;8.80;99.90;;;;;;5069251;28;20497;-85
2023/12/27 07:38:41;;;;;;;5.40;3.23;;;8.80;99.90;;;;;;5063837;28;20456;-87
2023/12/27 07:41:28;;;;;;;4.93;2.60;;;8.80;99.90;;;;;;5064960;28;20511;-86
2023/12/27 07:44:15;;;;;;;15.10;3.80;;;8.80;99.90;;;;;;5071154;28;20493;-86
2023/12/27 07:47:04;;;;;;;5.07;3.50;;;8.80;99.90;;;;;;5062119;28;20510;-86
2023/12/27 07:49:50;;;;;;;11.70;4.30;;;8.70;99.90;;;;;;5067939;28;20517;-85
2023/12/27 07:52:35;;;;;;;6.23;3.13;;;8.70;99.90;;;;;;5061386;28;20453;-85
2023/12/27 07:55:21;;;;;;;5.63;3.13;;;8.80;99.90;;;;;;5062893;28;20921;-86
2023/12/27 07:58:08;;;;;;;5.63;2.57;;;8.80;99.90;;;;;;5062912;28;21092;-85
2023/12/27 08:00:54;;;;;;;5.80;2.80;;;8.80;99.90;;;;;;5062577;28;20468;-85
2023/12/27 08:03:40;;;;;;;7.60;2.70;;;8.80;99.90;;;;;;5067990;28;20580;-86
2023/12/27 08:06:26;;;;;;;11.90;2.80;;;8.80;99.90;;;;;;5066420;28;20490;-85
2023/12/27 08:09:11;;;;;;;4.57;2.87;;;8.80;99.90;;;;;;5069791;28;20480;-85
2023/12/27 08:11:57;;;;;;;3.17;2.50;;;8.80;99.90;;;;;;5069959;28;20538;-86
2023/12/27 08:14:44;;;;;;;4.63;2.43;;;8.90;99.90;;;;;;5068939;28;20444;-85
2023/12/27 08:17:30;;;;;;;10.97;3.00;;;8.90;99.90;;;;;;5069561;28;20863;-85
2023/12/27 08:20:16;;;;;;;2.70;2.10;;;8.90;99.90;;;;;;5060658;28;20465;-85
2023/12/27 08:23:02;;;;;;;6.97;3.07;;;9.00;99.90;;;;;;5064295;28;20457;-85
2023/12/27 08:25:48;;;;;;;4.33;2.37;;;9.00;99.90;;;;;;5061612;28;21080;-85
2023/12/27 08:28:35;;;;;;;7.93;2.77;;;9.10;99.90;;;;;;5064667;28;20463;-86
2023/12/27 08:31:22;;;;;;;5.93;2.43;;;9.10;99.90;;;;;;5069897;28;21051;-86
2023/12/27 08:34:11;;;;;;;3.27;2.70;;;9.10;99.90;;;;;;5068980;28;20470;-85
2023/12/27 08:36:57;;;;;;;7.43;2.70;;;9.10;99.90;;;;;;5066874;28;20958;-84
2023/12/27 08:39:43;;;;;;;11.10;2.90;;;9.10;99.90;;;;;;5063963;28;20580;-85
2023/12/27 08:42:29;;;;;;;4.93;2.50;;;9.20;99.90;;;;;;5064187;28;20955;-85
2023/12/27 08:45:15;;;;;;;3.90;2.90;;;9.20;99.90;;;;;;5062267;28;20962;-85
2023/12/27 08:48:02;;;;;;;11.40;3.47;;;9.10;99.90;;;;;;5064660;28;20464;-85
2023/12/27 08:50:49;;;;;;;6.13;3.40;;;9.10;99.90;;;;;;5065844;28;21252;-85
2023/12/27 08:53:35;;;;;;;7.37;3.90;;;9.20;99.90;;;;;;5071710;28;20462;-85
2023/12/27 08:56:20;;;;;;;6.90;3.87;;;9.20;99.90;;;;;;5061280;28;20437;-86
2023/12/27 08:59:06;;;;;;;11.33;4.27;;;9.30;99.90;;;;;;5063506;28;20442;-84
2023/12/27 09:01:52;;;;;;;8.30;5.17;;;9.30;99.90;;;;;;5065463;28;20484;-85
2023/12/27 09:04:39;;;;;;;11.10;4.33;;;9.30;99.90;;;;;;5059425;28;20460;-85
2023/12/27 09:07:24;;;;;;;8.00;3.97;;;9.40;99.90;;;;;;5062642;28;20445;-86
2023/12/27 09:10:11;;;;;;;10.20;3.40;;;9.40;99.90;;;;;;5067889;28;20580;-85
2023/12/27 09:12:57;;;;;;;7.43;3.60;;;9.40;99.90;;;;;;5063629;28;20496;-85
2023/12/27 09:15:42;;;;;;;7.63;3.37;;;9.50;99.90;;;;;;5062915;28;20454;-85
2023/12/27 09:18:28;;;;;;;8.50;3.63;;;9.60;99.90;;;;;;5058647;28;20622;-85
2023/12/27 09:21:15;;;;;;;7.63;3.97;;;9.50;99.90;;;;;;5060527;28;20513;-85
2023/12/27 09:24:01;;;;;;;6.53;3.20;;;9.50;99.90;;;;;;5059468;28;20813;-85
2023/12/27 09:26:48;;;;;;;5.90;3.90;;;9.50;99.90;;;;;;5066387;28;20467;-85
2023/12/27 09:29:34;;;;;;;7.43;4.40;;;9.50;99.90;;;;;;5066651;28;20480;-86
2023/12/27 09:32:20;;;;;;;12.23;4.70;;;9.60;99.90;;;;;;5065507;28;20432;-85
2023/12/27 09:35:06;;;;;;;6.40;4.00;;;9.60;99.90;;;;;;5062970;28;20594;-85
2023/12/27 09:37:53;;;;;;;10.13;3.67;;;9.60;99.90;;;;;;5062679;28;20420;-86
2023/12/27 09:40:39;;;;;;;7.63;3.20;;;9.60;99.90;;;;;;5064077;28;20465;-85
2023/12/27 09:43:25;;;;;;;5.50;3.30;;;9.50;99.90;;;;;;5063298;28;20447;-86
2023/12/27 09:46:11;;;;;;;6.20;3.77;;;9.60;99.90;;;;;;5066322;28;20450;-85
2023/12/27 09:48:57;;;;;;;11.50;3.17;;;9.50;99.90;;;;;;5070823;28;20429;-85
2023/12/27 09:51:44;;;;;;;6.47;5.00;;;9.50;99.90;;;;;;5059798;28;20468;-84
2023/12/27 09:54:31;;;;;;;8.77;5.90;;;9.60;99.90;;;;;;5060865;28;20519;-85
2023/12/27 09:57:17;;;;;;;8.13;4.80;;;9.70;99.90;;;;;;5058749;28;21175;-85
2023/12/27 10:00:05;;;;;;;6.90;4.10;;;9.80;99.90;;;;;;5060755;28;20444;-85
2023/12/27 10:02:54;;;;;;;6.60;4.20;;;9.80;99.90;;;;;;5055208;28;20443;-86
2023/12/27 10:05:46;;;;;;;8.50;4.33;;;9.90;99.90;;;;;;5065826;28;20507;-85
2023/12/27 10:08:32;;;;;;;12.27;3.73;;;10.00;99.90;;;;;;5064456;28;20452;-86
2023/12/27 10:11:21;;;;;;;7.40;4.40;;;10.00;99.90;;;;;;5060436;28;20462;-85
2023/12/27 10:14:08;;;;;;;6.77;3.17;;;10.00;99.90;;;;;;5059765;28;20575;-85
2023/12/27 10:17:08;;;;;;;7.90;3.50;;;10.10;99.90;;;;;;5058414;27;20932;-74
2023/12/27 10:19:53;;;;;;;7.40;3.80;;;10.00;99.90;;;;;;5055469;28;20969;-74
2023/12/27 10:22:39;;;;;;;8.40;4.50;;;10.10;99.90;;;;;;5069196;28;20543;-74
2023/12/27 10:25:26;;;;;;;6.33;3.77;;;10.10;99.90;;;;;;5059065;28;20417;-73
2023/12/27 10:28:11;;;;;;;6.70;4.30;;;10.20;99.90;;;;;;5055631;28;20452;-72
2023/12/27 10:30:57;;;;;;;8.90;3.13;;;10.20;99.90;;;;;;5055084;28;20461;-74
2023/12/27 10:33:46;;;;;;;6.87;3.33;;;10.30;99.90;;;;;;5053641;28;20424;-74
2023/12/27 10:36:31;;;;;;;5.80;2.70;;;10.30;99.90;;;;;;5055302;28;20474;-74
2023/12/27 10:39:18;;;;;;;6.43;3.07;;;10.30;99.90;;;;;;5055164;28;20838;-74
2023/12/27 10:42:06;;;;;;;5.37;2.80;;;10.40;99.90;;;;;;5056888;28;20588;-74
2023/12/27 10:44:52;;;;;;;5.73;3.03;;;10.40;99.90;;;;;;5058593;28;20428;-73
2023/12/27 10:47:38;;;;;;;5.10;2.90;;;10.40;99.90;;;;;;5055811;28;20988;-73
2023/12/27 10:50:27;;;;;;;10.70;2.90;;;10.30;99.90;;;;;;5055455;28;20443;-73
2023/12/27 10:53:19;;;;;;;7.30;2.80;;;10.50;99.90;;;;;;5055466;28;20478;-73
2023/12/27 10:56:06;;;;;;;4.50;2.53;;;10.90;99.90;;;;;;5057390;28;20619;-73
2023/12/27 10:58:53;;;;;;;4.33;2.93;;;11.10;99.90;;;;;;5055127;28;20446;-74
2023/12/27 11:01:41;;;;;;;4.63;2.93;;;11.30;99.90;;;;;;5057396;28;20555;-72
2023/12/27 11:04:27;;;;;;;8.87;2.60;;;11.30;99.90;;;;;;5056572;28;20446;-74
2023/12/27 11:07:16;;;;;;;4.50;2.97;;;11.30;99.90;;;;;;5059852;28;20420;-74
2023/12/27 11:10:05;;;;;;;4.53;2.87;;;11.20;99.90;;;;;;5055941;28;20563;-74
2023/12/27 11:12:52;;;;;;;8.50;2.60;;;11.20;99.90;;;;;;5054055;28;20481;-73
2023/12/27 11:15:39;;;;;;;8.97;3.13;;;11.20;99.90;;;;;;5056281;28;20520;-73
2023/12/27 11:18:28;;;;;;;4.13;2.47;;;11.10;99.90;;;;;;5059753;28;21480;-73
2023/12/27 11:21:15;;;;;;;6.93;2.40;;;11.00;99.90;;;;;;5054774;28;22103;-73
2023/12/27 11:24:03;;;;;;;5.00;2.10;;;11.10;99.90;;;;;;5055866;28;20461;-72
2023/12/27 11:26:59;;;;;;;5.47;2.53;;;11.00;99.90;;;;;;5053312;28;20469;-73
2023/12/27 11:29:46;;;;;;;5.50;2.27;;;11.00;99.90;;;;;;5046985;28;20540;-73
2023/12/27 11:32:32;;;;;;;5.47;2.20;;;10.90;99.90;;;;;;5041202;28;21138;-73
2023/12/27 11:35:24;;;;;;;4.20;2.60;;;11.00;99.90;;;;;;5043297;28;20463;-72
2023/12/27 11:38:15;;;;;;;9.87;3.00;;;11.00;99.90;;;;;;5043282;28;20496;-73
2023/12/27 11:41:02;;;;;;;5.20;3.27;;;11.00;99.90;;;;;;5040315;28;20479;-73
2023/12/27 11:43:53;;;;;;;6.57;4.33;;;10.90;99.90;;;;;;5048365;28;20406;-73
2023/12/27 11:46:39;;;;;;;6.00;3.77;;;10.90;99.90;;;;;;5057602;28;20441;-73
2023/12/27 11:49:25;;;;;;;5.70;4.20;;;10.90;99.90;;;;;;5053364;28;20405;-73
2023/12/27 11:52:12;;;;;;;9.60;5.10;;;10.90;99.90;;;;;;5053992;28;20506;-73
2023/12/27 11:55:16;;;;;;;8.13;5.60;;;10.90;99.90;;;;;;5048501;28;20446;-72
2023/12/27 11:58:04;;;;;;;6.33;3.57;;;10.90;99.90;;;;;;5049543;28;20755;-74
2023/12/27 12:00:49;;;;;;;6.83;3.93;;;10.90;99.90;;;;;;5050381;28;20439;-75
2023/12/27 12:03:38;;;;;;;8.80;3.70;;;11.00;99.90;;;;;;5050693;28;20524;-74
2023/12/27 12:06:39;;;;;;;5.90;2.80;;;10.90;99.90;;;;;;5052780;28;20406;-72
2023/12/27 12:09:31;;;;;;;11.03;2.73;;;10.80;99.90;;;;;;5050233;28;21962;-72
2023/12/27 12:12:18;;;;;;;6.00;2.60;;;10.90;99.90;;;;;;5046827;28;20925;-74
2023/12/27 12:15:06;;;;;;;4.90;2.10;;;10.90;99.90;;;;;;5048134;28;20466;-75
2023/12/27 12:17:53;;;;;;;2.97;1.93;;;10.90;99.90;;;;;;5050458;28;20460;-75
2023/12/27 12:20:42;;;;;;;4.60;2.40;;;10.90;99.90;;;;;;5053316;28;20447;-74
2023/12/27 12:23:30;;;;;;;8.43;2.30;;;11.00;99.90;;;;;;5054308;28;20434;-75
2023/12/27 12:26:17;;;;;;;4.87;2.87;;;11.00;99.90;;;;;;5053685;28;20439;-75
2023/12/27 12:29:03;;;;;;;4.70;2.20;;;11.10;99.90;;;;;;5048594;28;20417;-75
2023/12/27 12:31:50;;;;;;;5.77;2.53;;;11.00;99.90;;;;;;5052868;28;20502;-74
2023/12/27 12:34:35;;;;;;;4.10;2.27;;;11.10;99.90;;;;;;5055684;28;20613;-75
2023/12/27 12:37:21;;;;;;;7.10;2.40;;;11.10;99.90;;;;;;5053530;28;21217;-71
2023/12/27 12:40:09;;;;;;;3.50;1.93;;;11.20;99.90;;;;;;5052454;28;20454;-73
2023/12/27 12:42:56;;;;;;;5.43;2.00;;;11.40;99.90;;;;;;5047895;28;20794;-72
2023/12/27 12:45:42;;;;;;;6.30;2.67;;;11.40;99.90;;;;;;5048861;28;20417;-73
2023/12/27 12:48:29;;;;;;;4.23;2.33;;;11.30;99.90;;;;;;5040235;28;20450;-73
2023/12/27 12:51:19;;;;;;;4.80;2.43;;;11.30;99.90;;;;;;5044037;28;20441;-75
2023/12/27 12:54:07;;;;;;;7.07;3.13;;;11.30;99.90;;;;;;5051217;28;20397;-73
2023/12/27 12:56:52;;;;;;;5.70;1.90;;;11.30;99.90;;;;;;5039692;28;20445;-73
2023/12/27 12:59:41;;;;;;;12.00;2.50;;;11.30;99.90;;;;;;5049214;28;20522;-73
2023/12/27 13:02:27;;;;;;;4.20;2.07;;;11.30;99.90;;;;;;5053272;28;20958;-73
2023/12/27 13:05:14;;;;;;;6.33;2.60;;;11.30;99.90;;;;;;5054713;28;20434;-73
2023/12/27 13:08:05;;;;;;;3.97;1.87;;;11.30;99.90;;;;;;5057434;28;20494;-72
2023/12/27 13:10:51;;;;;;;4.67;2.37;;;11.30;99.90;;;;;;5047075;28;20541;-73
2023/12/27 13:13:37;;;;;;;7.80;2.50;;;11.20;99.90;;;;;;5049391;28;20945;-73
2023/12/27 13:16:22;;;;;;;6.80;2.93;;;11.10;99.90;;;;;;5056623;28;20559;-73
2023/12/27 13:19:09;;;;;;;6.80;4.40;;;11.00;99.90;;;;;;5057261;28;20811;-73
2023/12/27 13:21:56;;;;;;;5.80;2.37;;;11.00;99.90;;;;;;5044733;28;20553;-72
2023/12/27 13:24:41;;;;;;;3.20;2.20;;;10.80;99.90;;;;;;5042394;28;20944;-73
2023/12/27 13:27:27;;;;;;;7.90;2.80;;;10.80;99.90;;;;;;5047502;28;20569;-73
2023/12/27 13:30:13;;;;;;;8.10;2.20;;;10.80;99.90;;;;;;5060056;28;20996;-72
2023/12/27 13:33:01;;;;;;;3.50;2.10;;;10.80;99.90;;;;;;5042976;28;20430;-72
2023/12/27 13:35:47;;;;;;;5.53;2.07;;;10.70;99.90;;;;;;5051097;28;20458;-72
2023/12/27 13:38:34;;;;;;;5.40;2.13;;;10.70;99.90;;;;;;5060553;28;20435;-73
2023/12/27 13:41:19;;;;;;;5.80;2.17;;;10.70;99.90;;;;;;5051328;28;20812;-73
2023/12/27 13:44:05;;;;;;;5.87;2.37;;;10.70;99.90;;;;;;5053549;28;20499;-72
2023/12/27 13:46:50;;;;;;;3.93;1.93;;;10.60;99.90;;;;;;5037858;28;20403;-73
2023/12/27 13:49:36;;;;;;;6.43;2.23;;;10.60;99.90;;;;;;5049549;28;20521;-73
2023/12/27 13:52:22;;;;;;;7.30;2.20;;;10.60;99.90;;;;;;5052841;28;20433;-73
2023/12/27 13:55:10;;;;;;;8.90;2.27;;;10.50;99.90;;;;;;5047639;28;20910;-73
2023/12/27 13:57:56;;;;;;;7.50;2.63;;;10.60;99.90;;;;;;5045016;28;20477;-73
2023/12/27 14:00:41;;;;;;;4.17;2.00;;;10.60;99.90;;;;;;5061880;28;20451;-73
2023/12/27 14:03:29;;;;;;;6.53;4.60;;;10.60;99.90;;;;;;5054063;28;20422;-72
2023/12/27 14:06:15;;;;;;;5.90;2.70;;;10.60;99.90;;;;;;5042369;28;20431;-73
2023/12/27 14:09:02;;;;;;;6.93;2.80;;;10.50;99.90;;;;;;5045042;28;20431;-73
2023/12/27 14:11:49;;;;;;;5.10;2.23;;;10.50;99.90;;;;;;5048996;28;20482;-73
2023/12/27 14:14:35;;;;;;;2.93;2.10;;;10.50;99.90;;;;;;5052927;28;20575;-73
2023/12/27 14:17:20;;;;;;;11.33;2.53;;;10.40;99.90;;;;;;5045682;28;21184;-74
2023/12/27 14:20:09;;;;;;;4.90;2.30;;;10.30;99.90;;;;;;5048348;28;20475;-73
2023/12/27 14:22:55;;;;;;;4.47;2.33;;;10.30;99.90;;;;;;5051248;28;20433;-73
2023/12/27 14:25:42;;;;;;;3.53;2.00;;;10.30;99.90;;;;;;5053628;28;20430;-73
2023/12/27 14:28:29;;;;;;;4.10;2.37;;;10.30;99.90;;;;;;5049454;28;20453;-72
2023/12/27 14:31:15;;;;;;;6.50;2.10;;;10.20;99.90;;;;;;5056743;28;20786;-73